DLH7D LPPR-LIMJ
Flight info
| Callsign | DLH7D |
|---|---|
| Flight time | 2h 5m |
| Altitude | 32000 |
| Route | BELDU DCT ADORO DCT ZMR N976 NEA/N0459F340 N976 DGO T429 GOSVI/N0476F280 T429 TOPTU DCT TOU DCT GAI DCT MEN DCT NINUN UN871 LATAM UL55 ROMAM/N0461F330 UL55 EMMEF DCT LAPRI/N0459F340 DCT MOGBO/N0463F330 DCT KODOK DCT TOP/N0468F310 M730 TESTO |
| Aircraft | A306/H-SDE3FGHIRWY/LB1 |
Departure
| Time | 2026-04-25 21:33 |
|---|---|
| Airport | Francisco de Sá Carneiro Airport (LPPR) |
Arrival
| Time | 2026-04-25 23:39 |
|---|---|
| Airport | Genoa Cristoforo Colombo Airport (LIMJ) |
| Time | Latitude | Longitude | Altitude | Speed | Heading |
|---|---|---|---|---|---|
| 2026-04-25 21:20 | 41.23730 | -8.67271 | 248 ft | 5 kts | 69° |
| 2026-04-25 21:23 | 41.23730 | -8.67272 | 221 ft | 1 kts | 69° |
| 2026-04-25 21:23 | 41.23725 | -8.67289 | 248 ft | 3 kts | 70° |
| 2026-04-25 21:23 | 41.23718 | -8.67315 | 248 ft | 3 kts | 72° |
| 2026-04-25 21:24 | 41.23713 | -8.67340 | 248 ft | 3 kts | 79° |
| 2026-04-25 21:24 | 41.23710 | -8.67366 | 248 ft | 3 kts | 97° |
| 2026-04-25 21:24 | 41.23714 | -8.67386 | 247 ft | 3 kts | 127° |
| 2026-04-25 21:24 | 41.23715 | -8.67388 | 247 ft | 2 kts | 129° |
| 2026-04-25 21:27 | 41.23698 | -8.67365 | 248 ft | 8 kts | 140° |
| 2026-04-25 21:27 | 41.23629 | -8.67335 | 248 ft | 14 kts | 175° |
| 2026-04-25 21:28 | 41.23533 | -8.67380 | 244 ft | 17 kts | 202° |
| 2026-04-25 21:28 | 41.23422 | -8.67373 | 243 ft | 15 kts | 165° |
| 2026-04-25 21:28 | 41.23337 | -8.67407 | 242 ft | 13 kts | 248° |
| 2026-04-25 21:28 | 41.23320 | -8.67510 | 242 ft | 11 kts | 258° |
| 2026-04-25 21:29 | 41.23310 | -8.67579 | 241 ft | 0 kts | 259° |
| 2026-04-25 21:31 | 41.23307 | -8.67598 | 241 ft | 4 kts | 259° |
| 2026-04-25 21:31 | 41.23300 | -8.67647 | 243 ft | 6 kts | 259° |
| 2026-04-25 21:32 | 41.23296 | -8.67704 | 244 ft | 6 kts | 281° |
| 2026-04-25 21:32 | 41.23345 | -8.67742 | 243 ft | 10 kts | 347° |
| 2026-04-25 21:32 | 41.23438 | -8.67766 | 239 ft | 24 kts | 349° |
| 2026-04-25 21:32 | 41.23751 | -8.67847 | 226 ft | 78 kts | 349° |
| 2026-04-25 21:33 | 41.24497 | -8.68045 | 215 ft | 139 kts | 348° |
| 2026-04-25 21:33 | 41.25633 | -8.68343 | 257 ft | 188 kts | 347° |
| 2026-04-25 21:33 | 41.26929 | -8.68691 | 1085 ft | 185 kts | 348° |
| 2026-04-25 21:33 | 41.28179 | -8.69035 | 1990 ft | 193 kts | 349° |
| 2026-04-25 21:34 | 41.29615 | -8.69424 | 2326 ft | 225 kts | 350° |
| 2026-04-25 21:34 | 41.31191 | -8.69841 | 2863 ft | 242 kts | 351° |
| 2026-04-25 21:34 | 41.32921 | -8.70273 | 3343 ft | 263 kts | 350° |
| 2026-04-25 21:34 | 41.34727 | -8.70734 | 4198 ft | 265 kts | 350° |
| 2026-04-25 21:35 | 41.36549 | -8.71208 | 5107 ft | 269 kts | 350° |
| 2026-04-25 21:35 | 41.38407 | -8.71675 | 5981 ft | 274 kts | 353° |
| 2026-04-25 21:35 | 41.39700 | -8.71754 | 6580 ft | 276 kts | 5° |
| 2026-04-25 21:35 | 41.42207 | -8.71138 | 7740 ft | 279 kts | 22° |
| 2026-04-25 21:36 | 41.43369 | -8.70328 | 8354 ft | 280 kts | 38° |
| 2026-04-25 21:36 | 41.44630 | -8.68385 | 9237 ft | 281 kts | 65° |
| 2026-04-25 21:36 | 41.45201 | -8.65894 | 10116 ft | 283 kts | 80° |
| 2026-04-25 21:36 | 41.45434 | -8.63270 | 10638 ft | 298 kts | 87° |
| 2026-04-25 21:37 | 41.45489 | -8.60408 | 10957 ft | 319 kts | 90° |
| 2026-04-25 21:37 | 41.45477 | -8.58370 | 11154 ft | 332 kts | 91° |
| 2026-04-25 21:37 | 41.45439 | -8.54152 | 11553 ft | 355 kts | 90° |
| 2026-04-25 21:37 | 41.45440 | -8.50784 | 11849 ft | 372 kts | 89° |
| 2026-04-25 21:38 | 41.45476 | -8.47285 | 12307 ft | 382 kts | 89° |
| 2026-04-25 21:38 | 41.45539 | -8.43728 | 12890 ft | 387 kts | 88° |
| 2026-04-25 21:38 | 41.45616 | -8.40111 | 13503 ft | 392 kts | 88° |
| 2026-04-25 21:38 | 41.45700 | -8.36456 | 14105 ft | 397 kts | 88° |
| 2026-04-25 21:39 | 41.45784 | -8.32768 | 14679 ft | 400 kts | 88° |
| 2026-04-25 21:39 | 41.45867 | -8.29040 | 15284 ft | 404 kts | 88° |
| 2026-04-25 21:39 | 41.45948 | -8.25284 | 15902 ft | 407 kts | 88° |
| 2026-04-25 21:39 | 41.46026 | -8.21496 | 16515 ft | 410 kts | 88° |
| 2026-04-25 21:40 | 41.46103 | -8.17677 | 17103 ft | 413 kts | 88° |
| 2026-04-25 21:40 | 41.46178 | -8.13837 | 17690 ft | 416 kts | 88° |
| 2026-04-25 21:40 | 41.46253 | -8.09958 | 18246 ft | 420 kts | 88° |
| 2026-04-25 21:40 | 41.46327 | -8.06056 | 18750 ft | 423 kts | 88° |
| 2026-04-25 21:41 | 41.46400 | -8.02122 | 19228 ft | 426 kts | 88° |
| 2026-04-25 21:41 | 41.46473 | -7.98170 | 19702 ft | 428 kts | 88° |
| 2026-04-25 21:41 | 41.46545 | -7.94179 | 20156 ft | 432 kts | 88° |
| 2026-04-25 21:41 | 41.46616 | -7.90160 | 20594 ft | 435 kts | 88° |
| 2026-04-25 21:42 | 41.46686 | -7.86118 | 21058 ft | 437 kts | 88° |
| 2026-04-25 21:42 | 41.46755 | -7.82047 | 21515 ft | 440 kts | 88° |
| 2026-04-25 21:42 | 41.46823 | -7.78006 | 21938 ft | 443 kts | 88° |
| 2026-04-25 21:42 | 41.46890 | -7.73895 | 22389 ft | 445 kts | 88° |
| 2026-04-25 21:43 | 41.46956 | -7.69751 | 22817 ft | 448 kts | 88° |
| 2026-04-25 21:43 | 41.47020 | -7.65589 | 23231 ft | 451 kts | 88° |
| 2026-04-25 21:43 | 41.47084 | -7.61397 | 23649 ft | 453 kts | 88° |
| 2026-04-25 21:43 | 41.47146 | -7.57190 | 23998 ft | 455 kts | 88° |
| 2026-04-25 21:44 | 41.47207 | -7.52953 | 24316 ft | 458 kts | 88° |
| 2026-04-25 21:44 | 41.47267 | -7.48700 | 24630 ft | 460 kts | 88° |
| 2026-04-25 21:44 | 41.47382 | -7.40133 | 25262 ft | 464 kts | 88° |
| 2026-04-25 21:45 | 41.47437 | -7.35826 | 25566 ft | 466 kts | 88° |
| 2026-04-25 21:45 | 41.47474 | -7.32953 | 25764 ft | 467 kts | 88° |
| 2026-04-25 21:45 | 41.47545 | -7.27138 | 26147 ft | 470 kts | 88° |
| 2026-04-25 21:45 | 41.47597 | -7.22772 | 26442 ft | 472 kts | 88° |
| 2026-04-25 21:46 | 41.47648 | -7.18394 | 26733 ft | 474 kts | 88° |
| 2026-04-25 21:46 | 41.47698 | -7.13983 | 27001 ft | 476 kts | 88° |
| 2026-04-25 21:46 | 41.47745 | -7.09571 | 27341 ft | 476 kts | 88° |
| 2026-04-25 21:46 | 41.47790 | -7.05164 | 27735 ft | 475 kts | 88° |
| 2026-04-25 21:47 | 41.47833 | -7.00763 | 28118 ft | 474 kts | 88° |
| 2026-04-25 21:47 | 41.47874 | -6.96365 | 28507 ft | 473 kts | 88° |
| 2026-04-25 21:47 | 41.47914 | -6.91973 | 28896 ft | 473 kts | 88° |
| 2026-04-25 21:47 | 41.47949 | -6.87590 | 29278 ft | 472 kts | 88° |
| 2026-04-25 21:48 | 41.47985 | -6.83213 | 29654 ft | 472 kts | 87° |
| 2026-04-25 21:48 | 41.48021 | -6.78845 | 30040 ft | 471 kts | 87° |
| 2026-04-25 21:48 | 41.48055 | -6.74533 | 30382 ft | 471 kts | 87° |
| 2026-04-25 21:48 | 41.48087 | -6.70181 | 30702 ft | 470 kts | 87° |
| 2026-04-25 21:49 | 41.48118 | -6.65817 | 31008 ft | 470 kts | 87° |
| 2026-04-25 21:49 | 41.48146 | -6.61468 | 31338 ft | 469 kts | 87° |
| 2026-04-25 21:49 | 41.48173 | -6.57114 | 31607 ft | 468 kts | 87° |
| 2026-04-25 21:49 | 41.48198 | -6.52775 | 31756 ft | 468 kts | 87° |
| 2026-04-25 21:50 | 41.48219 | -6.48426 | 31888 ft | 468 kts | 88° |
| 2026-04-25 21:50 | 41.48239 | -6.44087 | 32015 ft | 468 kts | 88° |
| 2026-04-25 21:50 | 41.48260 | -6.39746 | 32122 ft | 468 kts | 88° |
| 2026-04-25 21:51 | 41.48297 | -6.31071 | 32142 ft | 468 kts | 88° |
| 2026-04-25 21:51 | 41.48734 | -6.22432 | 32132 ft | 466 kts | 83° |
| 2026-04-25 21:52 | 41.49362 | -6.13826 | 32145 ft | 467 kts | 83° |
| 2026-04-25 21:52 | 41.50018 | -6.05215 | 32381 ft | 466 kts | 83° |
| 2026-04-25 21:52 | 41.50346 | -6.00917 | 32639 ft | 465 kts | 83° |
| 2026-04-25 21:53 | 41.50668 | -5.96616 | 32900 ft | 465 kts | 83° |
| 2026-04-25 21:53 | 41.50983 | -5.92334 | 33166 ft | 464 kts | 83° |
| 2026-04-25 21:53 | 41.51294 | -5.88047 | 33433 ft | 463 kts | 83° |
| 2026-04-25 21:53 | 41.51600 | -5.83822 | 33694 ft | 463 kts | 83° |
| 2026-04-25 21:54 | 41.51907 | -5.79559 | 33965 ft | 462 kts | 83° |
| 2026-04-25 21:54 | 41.52214 | -5.75292 | 34131 ft | 463 kts | 83° |
| 2026-04-25 21:54 | 41.52521 | -5.70999 | 34147 ft | 465 kts | 84° |
| 2026-04-25 21:55 | 41.53691 | -5.62543 | 34144 ft | 464 kts | 70° |
| 2026-04-25 21:55 | 41.56093 | -5.54571 | 34144 ft | 463 kts | 66° |
| 2026-04-25 21:56 | 41.58719 | -5.46698 | 34141 ft | 464 kts | 65° |
| 2026-04-25 21:56 | 41.61372 | -5.38827 | 34144 ft | 465 kts | 65° |
| 2026-04-25 21:57 | 41.64001 | -5.30934 | 34146 ft | 465 kts | 65° |
| 2026-04-25 21:57 | 41.66612 | -5.23023 | 34149 ft | 465 kts | 65° |
| 2026-04-25 21:58 | 41.69216 | -5.15101 | 34151 ft | 466 kts | 66° |
| 2026-04-25 21:58 | 41.71820 | -5.07153 | 34150 ft | 467 kts | 66° |
| 2026-04-25 21:59 | 41.74414 | -4.99216 | 34145 ft | 460 kts | 66° |
| 2026-04-25 21:59 | 41.76973 | -4.91364 | 34154 ft | 466 kts | 66° |
| 2026-04-25 22:00 | 41.80865 | -4.79379 | 34153 ft | 468 kts | 66° |
| 2026-04-25 22:00 | 41.83456 | -4.71372 | 34156 ft | 468 kts | 66° |
| 2026-04-25 22:01 | 41.86043 | -4.63352 | 34155 ft | 468 kts | 66° |
| 2026-04-25 22:01 | 41.88188 | -4.56683 | 34157 ft | 469 kts | 66° |
| 2026-04-25 22:02 | 41.91204 | -4.47280 | 34155 ft | 470 kts | 66° |
| 2026-04-25 22:02 | 41.93785 | -4.39209 | 34156 ft | 470 kts | 66° |
| 2026-04-25 22:03 | 41.96366 | -4.31117 | 34162 ft | 472 kts | 66° |
| 2026-04-25 22:03 | 41.98945 | -4.23001 | 34164 ft | 473 kts | 66° |
| 2026-04-25 22:04 | 42.01281 | -4.15628 | 34167 ft | 473 kts | 66° |
| 2026-04-25 22:04 | 42.03911 | -4.07522 | 34162 ft | 474 kts | 65° |
| 2026-04-25 22:05 | 42.06326 | -3.99279 | 34165 ft | 474 kts | 72° |
| 2026-04-25 22:05 | 42.08211 | -3.90772 | 34167 ft | 474 kts | 74° |
| 2026-04-25 22:06 | 42.09972 | -3.82203 | 34175 ft | 475 kts | 74° |
| 2026-04-25 22:06 | 42.11738 | -3.73619 | 34186 ft | 475 kts | 74° |
| 2026-04-25 22:07 | 42.13219 | -3.66491 | 34191 ft | 476 kts | 74° |
| 2026-04-25 22:07 | 42.15307 | -3.56458 | 34194 ft | 476 kts | 74° |
| 2026-04-25 22:08 | 42.17090 | -3.47864 | 34198 ft | 476 kts | 74° |
| 2026-04-25 22:08 | 42.18858 | -3.39299 | 34197 ft | 477 kts | 75° |
| 2026-04-25 22:09 | 42.20630 | -3.30677 | 34195 ft | 477 kts | 75° |
| 2026-04-25 22:09 | 42.22393 | -3.22059 | 34193 ft | 477 kts | 75° |
| 2026-04-25 22:10 | 42.24153 | -3.13425 | 34198 ft | 477 kts | 75° |
| 2026-04-25 22:10 | 42.25904 | -3.04795 | 34196 ft | 477 kts | 75° |
| 2026-04-25 22:11 | 42.27649 | -2.96160 | 34195 ft | 477 kts | 75° |
| 2026-04-25 22:11 | 42.29388 | -2.87518 | 34200 ft | 477 kts | 75° |
| 2026-04-25 22:12 | 42.31120 | -2.78867 | 34191 ft | 477 kts | 75° |
| 2026-04-25 22:12 | 42.32554 | -2.71673 | 34194 ft | 477 kts | 75° |
| 2026-04-25 22:13 | 42.34567 | -2.61543 | 34192 ft | 477 kts | 75° |
| 2026-04-25 22:13 | 42.36279 | -2.52887 | 34193 ft | 477 kts | 75° |
| 2026-04-25 22:14 | 42.37976 | -2.44266 | 34183 ft | 477 kts | 75° |
| 2026-04-25 22:14 | 42.39687 | -2.35538 | 34180 ft | 477 kts | 76° |
| 2026-04-25 22:15 | 42.41379 | -2.26868 | 34182 ft | 477 kts | 76° |
| 2026-04-25 22:16 | 42.43895 | -2.13899 | 34178 ft | 477 kts | 76° |
| 2026-04-25 22:16 | 42.45572 | -2.05213 | 34171 ft | 476 kts | 76° |
| 2026-04-25 22:17 | 42.47241 | -1.96531 | 34166 ft | 476 kts | 76° |
| 2026-04-25 22:17 | 42.48904 | -1.87839 | 34165 ft | 476 kts | 76° |
| 2026-04-25 22:18 | 42.50018 | -1.81993 | 34168 ft | 476 kts | 76° |
| 2026-04-25 22:18 | 42.51669 | -1.73294 | 34174 ft | 476 kts | 76° |
| 2026-04-25 22:19 | 42.53313 | -1.64595 | 34172 ft | 477 kts | 76° |
| 2026-04-25 22:19 | 42.54941 | -1.55941 | 34168 ft | 476 kts | 76° |
| 2026-04-25 22:20 | 42.56582 | -1.47178 | 34168 ft | 476 kts | 76° |
| 2026-04-25 22:20 | 42.58196 | -1.38516 | 34164 ft | 476 kts | 76° |
| 2026-04-25 22:21 | 42.59813 | -1.29801 | 34159 ft | 476 kts | 76° |
| 2026-04-25 22:21 | 42.61154 | -1.22550 | 34156 ft | 476 kts | 76° |
| 2026-04-25 22:22 | 42.62759 | -1.13832 | 34162 ft | 476 kts | 76° |
| 2026-04-25 22:22 | 42.64357 | -1.05109 | 34162 ft | 475 kts | 76° |
| 2026-04-25 22:23 | 42.65906 | -0.96616 | 34160 ft | 475 kts | 76° |
| 2026-04-25 22:23 | 42.67487 | -0.87902 | 34165 ft | 475 kts | 76° |
| 2026-04-25 22:24 | 42.69062 | -0.79178 | 34172 ft | 475 kts | 76° |
| 2026-04-25 22:24 | 42.70629 | -0.70465 | 34171 ft | 475 kts | 76° |
| 2026-04-25 22:25 | 42.72191 | -0.61736 | 34181 ft | 475 kts | 76° |
| 2026-04-25 22:25 | 42.73743 | -0.53016 | 34472 ft | 473 kts | 77° |
| 2026-04-25 22:25 | 42.74507 | -0.48713 | 34712 ft | 473 kts | 77° |
| 2026-04-25 22:26 | 42.75277 | -0.44360 | 34954 ft | 473 kts | 77° |
| 2026-04-25 22:26 | 42.76046 | -0.40011 | 35158 ft | 473 kts | 77° |
| 2026-04-25 22:26 | 42.76812 | -0.35665 | 35185 ft | 472 kts | 77° |
| 2026-04-25 22:27 | 42.78339 | -0.26968 | 35195 ft | 472 kts | 77° |
| 2026-04-25 22:27 | 42.80602 | -0.18615 | 35196 ft | 471 kts | 60° |
| 2026-04-25 22:28 | 42.84402 | -0.11358 | 35201 ft | 471 kts | 51° |
| 2026-04-25 22:28 | 42.88550 | -0.04433 | 35205 ft | 471 kts | 50° |
| 2026-04-25 22:29 | 42.92722 | 0.02412 | 35201 ft | 472 kts | 50° |
| 2026-04-25 22:29 | 42.96896 | 0.09328 | 35210 ft | 472 kts | 50° |
| 2026-04-25 22:30 | 43.03126 | 0.19765 | 35205 ft | 472 kts | 50° |
| 2026-04-25 22:30 | 43.06568 | 0.25557 | 35211 ft | 472 kts | 50° |
| 2026-04-25 22:31 | 43.11409 | 0.33717 | 35211 ft | 473 kts | 50° |
| 2026-04-25 22:31 | 43.15554 | 0.40721 | 35206 ft | 473 kts | 50° |
| 2026-04-25 22:32 | 43.19690 | 0.47726 | 35212 ft | 473 kts | 50° |
| 2026-04-25 22:32 | 43.23828 | 0.54752 | 35209 ft | 473 kts | 50° |
| 2026-04-25 22:33 | 43.27900 | 0.61681 | 35214 ft | 473 kts | 50° |
| 2026-04-25 22:33 | 43.32027 | 0.68720 | 35211 ft | 473 kts | 50° |
| 2026-04-25 22:34 | 43.35905 | 0.75351 | 35203 ft | 474 kts | 50° |
| 2026-04-25 22:34 | 43.40031 | 0.82422 | 35204 ft | 474 kts | 50° |
| 2026-04-25 22:35 | 43.44151 | 0.89501 | 35201 ft | 474 kts | 51° |
| 2026-04-25 22:35 | 43.48273 | 0.96600 | 35207 ft | 474 kts | 51° |
| 2026-04-25 22:36 | 43.52387 | 1.03702 | 35208 ft | 474 kts | 51° |
| 2026-04-25 22:36 | 43.56468 | 1.10854 | 35207 ft | 474 kts | 52° |
| 2026-04-25 22:37 | 43.60342 | 1.18225 | 35211 ft | 476 kts | 54° |
| 2026-04-25 22:37 | 43.64175 | 1.25665 | 35210 ft | 478 kts | 54° |
| 2026-04-25 22:38 | 43.68053 | 1.33138 | 35209 ft | 478 kts | 53° |
| 2026-04-25 22:38 | 43.71947 | 1.40604 | 35204 ft | 478 kts | 53° |
| 2026-04-25 22:39 | 43.75837 | 1.48067 | 35210 ft | 478 kts | 53° |
| 2026-04-25 22:39 | 43.79721 | 1.55540 | 35208 ft | 478 kts | 53° |
| 2026-04-25 22:40 | 43.83575 | 1.62975 | 35202 ft | 478 kts | 53° |
| 2026-04-25 22:40 | 43.87442 | 1.70457 | 35190 ft | 477 kts | 53° |
| 2026-04-25 22:41 | 43.91308 | 1.77956 | 35190 ft | 477 kts | 54° |
| 2026-04-25 22:41 | 43.95171 | 1.85467 | 35194 ft | 477 kts | 54° |
| 2026-04-25 22:42 | 43.99017 | 1.92966 | 35179 ft | 477 kts | 54° |
| 2026-04-25 22:42 | 44.02864 | 2.00487 | 35176 ft | 477 kts | 54° |
| 2026-04-25 22:43 | 44.06706 | 2.08015 | 35187 ft | 477 kts | 54° |
| 2026-04-25 22:43 | 44.10513 | 2.15495 | 35178 ft | 477 kts | 54° |
| 2026-04-25 22:44 | 44.14341 | 2.23035 | 35182 ft | 477 kts | 54° |
| 2026-04-25 22:44 | 44.18164 | 2.30585 | 35189 ft | 476 kts | 54° |
| 2026-04-25 22:45 | 44.21986 | 2.38153 | 35191 ft | 476 kts | 54° |
| 2026-04-25 22:45 | 44.25791 | 2.45706 | 35187 ft | 476 kts | 54° |
| 2026-04-25 22:46 | 44.29590 | 2.53267 | 35188 ft | 476 kts | 54° |
| 2026-04-25 22:46 | 44.33360 | 2.60792 | 35182 ft | 476 kts | 54° |
| 2026-04-25 22:47 | 44.37148 | 2.68370 | 35188 ft | 475 kts | 54° |
| 2026-04-25 22:47 | 44.40923 | 2.75944 | 35172 ft | 475 kts | 54° |
| 2026-04-25 22:48 | 44.44699 | 2.83537 | 35186 ft | 475 kts | 54° |
| 2026-04-25 22:48 | 44.48460 | 2.91121 | 35169 ft | 474 kts | 54° |
| 2026-04-25 22:49 | 44.52220 | 2.98725 | 35186 ft | 474 kts | 54° |
| 2026-04-25 22:49 | 44.55974 | 3.06332 | 35179 ft | 474 kts | 54° |
| 2026-04-25 22:50 | 44.59716 | 3.13940 | 35168 ft | 474 kts | 54° |
| 2026-04-25 22:50 | 44.63116 | 3.21874 | 35182 ft | 474 kts | 59° |
| 2026-04-25 22:51 | 44.66367 | 3.29924 | 35178 ft | 474 kts | 59° |
| 2026-04-25 22:51 | 44.69590 | 3.38006 | 35166 ft | 474 kts | 59° |
| 2026-04-25 22:52 | 44.72791 | 3.46049 | 35167 ft | 474 kts | 59° |
| 2026-04-25 22:52 | 44.75485 | 3.52822 | 35159 ft | 474 kts | 59° |
| 2026-04-25 22:53 | 44.79220 | 3.62231 | 35176 ft | 474 kts | 60° |
| 2026-04-25 22:53 | 44.82426 | 3.70333 | 35177 ft | 473 kts | 60° |
| 2026-04-25 22:54 | 44.85626 | 3.78441 | 35182 ft | 473 kts | 60° |
| 2026-04-25 22:54 | 44.88815 | 3.86549 | 35176 ft | 473 kts | 60° |
| 2026-04-25 22:55 | 44.92002 | 3.94673 | 35185 ft | 473 kts | 60° |
| 2026-04-25 22:55 | 44.95179 | 4.02796 | 35169 ft | 473 kts | 60° |
| 2026-04-25 22:56 | 44.98354 | 4.10934 | 35172 ft | 473 kts | 60° |
| 2026-04-25 22:56 | 45.01511 | 4.19084 | 35171 ft | 473 kts | 62° |
| 2026-04-25 22:57 | 45.03566 | 4.27600 | 35167 ft | 474 kts | 79° |
| 2026-04-25 22:57 | 45.04483 | 4.36854 | 35158 ft | 475 kts | 83° |
| 2026-04-25 22:58 | 45.05168 | 4.46077 | 35162 ft | 475 kts | 84° |
| 2026-04-25 22:58 | 45.05831 | 4.55360 | 35150 ft | 474 kts | 83° |
| 2026-04-25 22:59 | 45.06518 | 4.64700 | 35142 ft | 474 kts | 83° |
| 2026-04-25 22:59 | 45.07204 | 4.73920 | 35139 ft | 474 kts | 83° |
| 2026-04-25 23:00 | 45.07890 | 4.83196 | 35138 ft | 474 kts | 83° |
| 2026-04-25 23:00 | 45.08566 | 4.92476 | 35138 ft | 474 kts | 83° |
| 2026-04-25 23:01 | 45.09235 | 5.01766 | 35131 ft | 474 kts | 84° |
| 2026-04-25 23:01 | 45.09896 | 5.11046 | 35135 ft | 474 kts | 84° |
| 2026-04-25 23:02 | 45.10089 | 5.20296 | 35136 ft | 474 kts | 91° |
| 2026-04-25 23:02 | 45.09793 | 5.29623 | 35128 ft | 474 kts | 93° |
| 2026-04-25 23:03 | 45.09408 | 5.38954 | 35134 ft | 474 kts | 93° |
| 2026-04-25 23:03 | 45.09080 | 5.46710 | 35136 ft | 474 kts | 93° |
| 2026-04-25 23:04 | 45.08986 | 5.48940 | 35138 ft | 474 kts | 93° |
| 2026-04-25 23:04 | 45.08531 | 5.59822 | 35130 ft | 474 kts | 93° |
| 2026-04-25 23:05 | 45.08141 | 5.69074 | 35135 ft | 474 kts | 94° |
| 2026-04-25 23:05 | 45.07741 | 5.78380 | 35147 ft | 474 kts | 94° |
| 2026-04-25 23:06 | 45.07253 | 5.87693 | 35150 ft | 474 kts | 95° |
| 2026-04-25 23:06 | 45.06622 | 5.96979 | 35144 ft | 474 kts | 96° |
| 2026-04-25 23:07 | 45.06000 | 6.05816 | 35151 ft | 474 kts | 96° |
| 2026-04-25 23:07 | 45.05354 | 6.15091 | 35150 ft | 474 kts | 96° |
| 2026-04-25 23:08 | 45.04712 | 6.24351 | 35139 ft | 473 kts | 96° |
| 2026-04-25 23:08 | 45.04066 | 6.33608 | 35142 ft | 473 kts | 96° |
| 2026-04-25 23:09 | 45.03521 | 6.41298 | 35144 ft | 473 kts | 96° |
| 2026-04-25 23:09 | 45.02859 | 6.50539 | 35143 ft | 472 kts | 96° |
| 2026-04-25 23:10 | 45.02079 | 6.61268 | 35144 ft | 472 kts | 96° |
| 2026-04-25 23:10 | 45.01515 | 6.68994 | 35141 ft | 471 kts | 96° |
| 2026-04-25 23:11 | 45.00848 | 6.78196 | 35130 ft | 470 kts | 96° |
| 2026-04-25 23:11 | 45.00175 | 6.87391 | 35137 ft | 470 kts | 96° |
| 2026-04-25 23:12 | 44.99500 | 6.96525 | 35144 ft | 470 kts | 96° |
| 2026-04-25 23:12 | 44.98814 | 7.05682 | 35154 ft | 469 kts | 96° |
| 2026-04-25 23:13 | 44.98150 | 7.14834 | 34831 ft | 465 kts | 94° |
| 2026-04-25 23:13 | 44.98063 | 7.19412 | 34018 ft | 467 kts | 91° |
| 2026-04-25 23:13 | 44.98047 | 7.24013 | 33085 ft | 469 kts | 90° |
| 2026-04-25 23:14 | 44.97879 | 7.28630 | 32125 ft | 472 kts | 97° |
| 2026-04-25 23:14 | 44.97253 | 7.33181 | 31172 ft | 473 kts | 106° |
| 2026-04-25 23:14 | 44.96204 | 7.37589 | 30199 ft | 475 kts | 110° |
| 2026-04-25 23:14 | 44.95021 | 7.41966 | 29068 ft | 477 kts | 111° |
| 2026-04-25 23:15 | 44.93811 | 7.46340 | 27939 ft | 479 kts | 111° |
| 2026-04-25 23:15 | 44.92610 | 7.50667 | 26802 ft | 480 kts | 111° |
| 2026-04-25 23:15 | 44.91373 | 7.55117 | 25727 ft | 480 kts | 111° |
| 2026-04-25 23:15 | 44.90180 | 7.59405 | 24939 ft | 473 kts | 111° |
| 2026-04-25 23:16 | 44.88980 | 7.63712 | 24097 ft | 468 kts | 111° |
| 2026-04-25 23:16 | 44.87797 | 7.67953 | 23246 ft | 463 kts | 111° |
| 2026-04-25 23:16 | 44.86622 | 7.72159 | 22314 ft | 458 kts | 111° |
| 2026-04-25 23:16 | 44.85461 | 7.76308 | 21435 ft | 453 kts | 111° |
| 2026-04-25 23:17 | 44.84306 | 7.80429 | 20571 ft | 448 kts | 111° |
| 2026-04-25 23:17 | 44.83169 | 7.84480 | 19752 ft | 443 kts | 111° |
| 2026-04-25 23:17 | 44.82042 | 7.88485 | 18940 ft | 438 kts | 111° |
| 2026-04-25 23:17 | 44.80924 | 7.92457 | 18147 ft | 434 kts | 111° |
| 2026-04-25 23:18 | 44.79829 | 7.96336 | 17424 ft | 427 kts | 111° |
| 2026-04-25 23:18 | 44.78751 | 8.00152 | 17090 ft | 412 kts | 111° |
| 2026-04-25 23:18 | 44.77710 | 8.03829 | 16821 ft | 397 kts | 111° |
| 2026-04-25 23:18 | 44.76704 | 8.07377 | 16574 ft | 384 kts | 111° |
| 2026-04-25 23:19 | 44.75726 | 8.10820 | 16312 ft | 372 kts | 111° |
| 2026-04-25 23:19 | 44.74780 | 8.14152 | 16057 ft | 362 kts | 111° |
| 2026-04-25 23:19 | 44.73854 | 8.17407 | 15806 ft | 355 kts | 111° |
| 2026-04-25 23:19 | 44.72938 | 8.20623 | 15570 ft | 353 kts | 111° |
| 2026-04-25 23:20 | 44.72024 | 8.23828 | 15321 ft | 352 kts | 111° |
| 2026-04-25 23:20 | 44.71111 | 8.27024 | 15077 ft | 351 kts | 111° |
| 2026-04-25 23:20 | 44.70201 | 8.30204 | 14846 ft | 350 kts | 111° |
| 2026-04-25 23:20 | 44.69296 | 8.33362 | 14608 ft | 348 kts | 111° |
| 2026-04-25 23:21 | 44.68392 | 8.36513 | 14371 ft | 346 kts | 111° |
| 2026-04-25 23:21 | 44.67494 | 8.39644 | 14140 ft | 345 kts | 111° |
| 2026-04-25 23:21 | 44.66684 | 8.42463 | 13936 ft | 343 kts | 111° |
| 2026-04-25 23:21 | 44.65827 | 8.45439 | 13690 ft | 342 kts | 111° |
| 2026-04-25 23:22 | 44.64936 | 8.48527 | 13517 ft | 341 kts | 111° |
| 2026-04-25 23:22 | 44.64047 | 8.51607 | 13352 ft | 340 kts | 110° |
| 2026-04-25 23:22 | 44.63158 | 8.54687 | 13225 ft | 340 kts | 110° |
| 2026-04-25 23:23 | 44.61381 | 8.60820 | 12968 ft | 339 kts | 110° |
| 2026-04-25 23:23 | 44.60493 | 8.63882 | 12842 ft | 339 kts | 111° |
| 2026-04-25 23:23 | 44.59453 | 8.66855 | 12702 ft | 340 kts | 120° |
| 2026-04-25 23:23 | 44.58108 | 8.69585 | 12588 ft | 340 kts | 124° |
| 2026-04-25 23:24 | 44.56689 | 8.72239 | 12458 ft | 340 kts | 125° |
| 2026-04-25 23:24 | 44.55280 | 8.74850 | 12332 ft | 339 kts | 125° |
| 2026-04-25 23:24 | 44.53838 | 8.77521 | 12205 ft | 339 kts | 126° |
| 2026-04-25 23:24 | 44.52435 | 8.80117 | 12088 ft | 339 kts | 125° |
| 2026-04-25 23:25 | 44.51015 | 8.82752 | 11966 ft | 338 kts | 125° |
| 2026-04-25 23:25 | 44.49602 | 8.85370 | 11832 ft | 332 kts | 126° |
| 2026-04-25 23:25 | 44.48235 | 8.87901 | 11694 ft | 320 kts | 126° |
| 2026-04-25 23:25 | 44.46919 | 8.90338 | 11557 ft | 308 kts | 126° |
| 2026-04-25 23:26 | 44.45651 | 8.92683 | 11418 ft | 297 kts | 126° |
| 2026-04-25 23:26 | 44.44424 | 8.94949 | 11285 ft | 286 kts | 126° |
| 2026-04-25 23:26 | 44.43242 | 8.97135 | 11145 ft | 276 kts | 126° |
| 2026-04-25 23:26 | 44.42102 | 8.99241 | 11015 ft | 267 kts | 126° |
| 2026-04-25 23:27 | 44.40997 | 9.01278 | 10883 ft | 259 kts | 126° |
| 2026-04-25 23:27 | 44.39926 | 9.03254 | 10756 ft | 252 kts | 126° |
| 2026-04-25 23:27 | 44.38829 | 9.05159 | 10633 ft | 252 kts | 134° |
| 2026-04-25 23:27 | 44.37425 | 9.06611 | 10504 ft | 252 kts | 154° |
| 2026-04-25 23:28 | 44.35728 | 9.07148 | 10382 ft | 252 kts | 183° |
| 2026-04-25 23:28 | 44.34076 | 9.06459 | 10255 ft | 250 kts | 214° |
| 2026-04-25 23:28 | 44.32925 | 9.04683 | 10134 ft | 248 kts | 246° |
| 2026-04-25 23:28 | 44.32393 | 9.02398 | 10038 ft | 249 kts | 257° |
| 2026-04-25 23:29 | 44.32002 | 9.00037 | 9910 ft | 250 kts | 258° |
| 2026-04-25 23:29 | 44.31618 | 8.97672 | 9781 ft | 250 kts | 258° |
| 2026-04-25 23:29 | 44.31224 | 8.95313 | 9651 ft | 249 kts | 258° |
| 2026-04-25 23:29 | 44.30822 | 8.92958 | 9392 ft | 249 kts | 257° |
| 2026-04-25 23:30 | 44.30416 | 8.90608 | 9094 ft | 247 kts | 257° |
| 2026-04-25 23:30 | 44.30012 | 8.88295 | 8821 ft | 242 kts | 257° |
| 2026-04-25 23:30 | 44.29613 | 8.86022 | 8393 ft | 241 kts | 257° |
| 2026-04-25 23:30 | 44.29214 | 8.83752 | 7930 ft | 241 kts | 257° |
| 2026-04-25 23:31 | 44.28814 | 8.81479 | 7502 ft | 241 kts | 257° |
| 2026-04-25 23:31 | 44.28415 | 8.79214 | 7165 ft | 239 kts | 257° |
| 2026-04-25 23:31 | 44.28023 | 8.76996 | 6833 ft | 238 kts | 257° |
| 2026-04-25 23:31 | 44.27628 | 8.74765 | 6499 ft | 236 kts | 257° |
| 2026-04-25 23:32 | 44.27235 | 8.72548 | 6176 ft | 234 kts | 257° |
| 2026-04-25 23:32 | 44.26964 | 8.70364 | 5957 ft | 225 kts | 271° |
| 2026-04-25 23:32 | 44.27176 | 8.68239 | 5684 ft | 219 kts | 284° |
| 2026-04-25 23:32 | 44.27559 | 8.66201 | 5398 ft | 216 kts | 287° |
| 2026-04-25 23:33 | 44.27957 | 8.64205 | 5258 ft | 208 kts | 286° |
| 2026-04-25 23:33 | 44.28372 | 8.62325 | 5092 ft | 197 kts | 294° |
| 2026-04-25 23:33 | 44.29126 | 8.60774 | 4754 ft | 193 kts | 319° |
| 2026-04-25 23:33 | 44.30300 | 8.59918 | 4340 ft | 194 kts | 347° |
| 2026-04-25 23:34 | 44.31647 | 8.59955 | 3991 ft | 195 kts | 11° |
| 2026-04-25 23:34 | 44.32968 | 8.60423 | 3864 ft | 196 kts | 15° |
| 2026-04-25 23:34 | 44.34265 | 8.60986 | 3716 ft | 196 kts | 23° |
| 2026-04-25 23:34 | 44.35374 | 8.62054 | 3456 ft | 195 kts | 50° |
| 2026-04-25 23:35 | 44.36144 | 8.63621 | 3101 ft | 196 kts | 61° |
| 2026-04-25 23:35 | 44.36813 | 8.65270 | 2826 ft | 193 kts | 63° |
| 2026-04-25 23:35 | 44.37457 | 8.66876 | 2517 ft | 186 kts | 63° |
| 2026-04-25 23:35 | 44.38081 | 8.68425 | 2240 ft | 179 kts | 63° |
| 2026-04-25 23:36 | 44.38674 | 8.69889 | 2021 ft | 165 kts | 63° |
| 2026-04-25 23:36 | 44.39208 | 8.71201 | 1754 ft | 150 kts | 63° |
| 2026-04-25 23:36 | 44.39707 | 8.72421 | 1508 ft | 140 kts | 64° |
| 2026-04-25 23:36 | 44.40183 | 8.73589 | 1364 ft | 138 kts | 64° |
| 2026-04-25 23:37 | 44.40655 | 8.74760 | 1217 ft | 138 kts | 64° |
| 2026-04-25 23:37 | 44.41124 | 8.75927 | 1005 ft | 137 kts | 64° |
| 2026-04-25 23:37 | 44.41546 | 8.77106 | 860 ft | 135 kts | 70° |
| 2026-04-25 23:37 | 44.41915 | 8.78309 | 669 ft | 134 kts | 76° |
| 2026-04-25 23:38 | 44.42025 | 8.79575 | 468 ft | 130 kts | 96° |
| 2026-04-25 23:38 | 44.41859 | 8.80852 | 315 ft | 135 kts | 105° |
| 2026-04-25 23:38 | 44.41616 | 8.82085 | 120 ft | 129 kts | 108° |
| 2026-04-25 23:38 | 44.41378 | 8.83248 | 28 ft | 108 kts | 105° |
| 2026-04-25 23:39 | 44.41248 | 8.83914 | 28 ft | 53 kts | 105° |
| 2026-04-25 23:39 | 44.41203 | 8.84203 | 29 ft | 10 kts | 67° |
| 2026-04-25 23:39 | 44.41245 | 8.84282 | 27 ft | 11 kts | 52° |
| 2026-04-25 23:39 | 44.41292 | 8.84368 | 28 ft | 7 kts | 53° |
| 2026-04-25 23:40 | 44.41299 | 8.84382 | 28 ft | 0 kts | 52° |
| 2026-04-25 23:40 | 44.41304 | 8.84390 | 30 ft | 2 kts | 52° |
| 2026-04-25 23:41 | 44.41323 | 8.84424 | 27 ft | 7 kts | 52° |
| 2026-04-25 23:41 | 44.41359 | 8.84490 | 26 ft | 10 kts | 52° |
| 2026-04-25 23:41 | 44.41400 | 8.84564 | 25 ft | 10 kts | 52° |
| 2026-04-25 23:41 | 44.41410 | 8.84654 | 26 ft | 10 kts | 105° |
| 2026-04-25 23:42 | 44.41390 | 8.84753 | 27 ft | 11 kts | 105° |
| 2026-04-25 23:42 | 44.41380 | 8.84828 | 26 ft | 2 kts | 72° |
| 2026-04-25 23:42 | 44.41394 | 8.84863 | 27 ft | 6 kts | 60° |
| 2026-04-25 23:42 | 44.41414 | 8.84911 | 27 ft | 5 kts | 60° |
| 2026-04-25 23:43 | 44.41427 | 8.84942 | 27 ft | 1 kts | 60° |
| 2026-04-25 23:43 | 44.41429 | 8.84948 | 28 ft | 0 kts | 60° |